Time,TemperatureF,DewpointF,PressureIn,WindDirection,WindDirectionDegrees,WindSpeedMPH,WindSpeedGustMPH,Humidity,HourlyPrecipIn,Conditions,Clouds,dailyrainin,SolarRadiationWatts/m^2,SoftwareType,DateUTC
2013-02-18 00:21:00,47.0,30.0,-100.00,NNE,15,11.0,15.0,51,0.00,,,0.00,0.000000,,2013-02-18 08:21:00,
2013-02-18 00:32:00,47.0,30.0,-100.00,NNE,15,11.0,15.0,51,0.00,,,0.00,0.000000,,2013-02-18 08:32:00,
2013-02-18 00:42:00,47.0,30.0,-100.00,NNE,15,11.0,15.0,51,0.00,,,0.00,0.000000,,2013-02-18 08:42:00,
2013-02-18 00:52:00,47.0,30.0,-100.00,NNE,15,11.0,15.0,51,0.00,,,0.00,0.000000,,2013-02-18 08:52:00,
2013-02-18 01:22:00,44.0,29.0,-100.00,North,6,11.0,17.0,56,0.00,,,-99.99,0.000000,,2013-02-18 09:22:00,
2013-02-18 01:31:00,44.0,29.0,-100.00,North,6,11.0,17.0,56,0.00,,,-99.99,0.000000,,2013-02-18 09:31:00,
2013-02-18 01:41:00,44.0,29.0,-100.00,North,6,11.0,17.0,56,0.00,,,-99.99,0.000000,,2013-02-18 09:41:00,
2013-02-18 01:51:00,44.0,29.0,-100.00,North,6,11.0,17.0,56,0.00,,,-99.99,0.000000,,2013-02-18 09:51:00,
2013-02-18 02:21:00,43.0,28.0,-100.00,NNE,19,9.0,17.0,55,0.00,,,0.00,0.000000,,2013-02-18 10:21:00,
2013-02-18 02:31:00,43.0,28.0,-100.00,NNE,19,9.0,17.0,55,0.00,,,0.00,0.000000,,2013-02-18 10:31:00,
2013-02-18 02:42:00,43.0,28.0,-100.00,NNE,19,9.0,17.0,55,0.00,,,0.00,0.000000,,2013-02-18 10:42:00,
2013-02-18 02:51:00,43.0,28.0,-100.00,NNE,19,9.0,17.0,55,0.00,,,0.00,0.000000,,2013-02-18 10:51:00,
2013-02-18 03:21:00,43.0,27.0,-100.00,North,11,11.0,15.0,53,0.00,,,0.00,0.000000,,2013-02-18 11:21:00,
2013-02-18 03:32:00,43.0,27.0,-100.00,North,11,11.0,15.0,53,0.00,,,0.00,0.000000,,2013-02-18 11:32:00,
2013-02-18 03:42:00,43.0,27.0,-100.00,North,11,11.0,15.0,53,0.00,,,0.00,0.000000,,2013-02-18 11:42:00,
2013-02-18 03:52:00,43.0,27.0,-100.00,North,11,11.0,15.0,53,0.00,,,0.00,0.000000,,2013-02-18 11:52:00,
2013-02-18 04:22:00,42.0,25.0,-100.00,NNE,12,8.0,17.0,51,0.00,,,0.00,0.000000,,2013-02-18 12:22:00,
2013-02-18 04:32:00,42.0,25.0,-100.00,NNE,12,8.0,17.0,51,0.00,,,0.00,0.000000,,2013-02-18 12:32:00,
2013-02-18 04:42:00,42.0,25.0,-100.00,NNE,12,8.0,17.0,51,0.00,,,0.00,0.000000,,2013-02-18 12:42:00,
2013-02-18 04:52:00,42.0,25.0,-100.00,NNE,12,8.0,17.0,51,0.00,,,0.00,0.000000,,2013-02-18 12:52:00,
2013-02-18 05:22:00,43.0,26.0,-100.00,NNE,13,5.0,14.0,50,0.00,,,0.00,0.000000,,2013-02-18 13:22:00,
2013-02-18 05:32:00,43.0,26.0,-100.00,NNE,13,5.0,14.0,50,0.00,,,0.00,0.000000,,2013-02-18 13:32:00,
2013-02-18 05:42:00,43.0,26.0,-100.00,NNE,13,5.0,14.0,50,0.00,,,0.00,0.000000,,2013-02-18 13:42:00,
2013-02-18 05:52:00,43.0,26.0,-100.00,NNE,13,5.0,14.0,50,0.00,,,0.00,0.000000,,2013-02-18 13:52:00,
2013-02-18 06:22:00,39.0,25.0,-100.00,NNE,21,6.0,11.0,56,0.00,,,0.00,0.000000,,2013-02-18 14:22:00,
2013-02-18 06:32:00,39.0,25.0,-100.00,NNE,21,6.0,11.0,56,0.00,,,0.00,0.000000,,2013-02-18 14:32:00,
2013-02-18 06:41:00,39.0,25.0,-100.00,NNE,21,6.0,11.0,56,0.00,,,0.00,0.000000,,2013-02-18 14:41:00,
2013-02-18 06:52:00,39.0,25.0,-100.00,NNE,21,6.0,11.0,56,0.00,,,0.00,0.000000,,2013-02-18 14:52:00,
2013-02-18 07:22:00,40.0,22.0,-100.00,NNE,13,11.0,16.0,49,0.00,,,0.00,3.000000,,2013-02-18 15:22:00,
2013-02-18 07:32:00,40.0,22.0,-100.00,NNE,13,11.0,16.0,49,0.00,,,0.00,3.000000,,2013-02-18 15:32:00,
2013-02-18 07:42:00,40.0,22.0,-100.00,NNE,13,11.0,16.0,49,0.00,,,0.00,3.000000,,2013-02-18 15:42:00,
2013-02-18 07:52:00,40.0,22.0,-100.00,NNE,13,11.0,16.0,49,0.00,,,0.00,3.000000,,2013-02-18 15:52:00,
2013-02-18 08:22:00,45.0,27.0,-100.00,NNE,27,0.0,14.0,48,0.00,,,0.00,77.000000,,2013-02-18 16:22:00,
2013-02-18 08:32:00,45.0,27.0,-100.00,NNE,27,0.0,14.0,48,0.00,,,0.00,77.000000,,2013-02-18 16:32:00,
2013-02-18 08:42:00,45.0,27.0,-100.00,NNE,27,0.0,14.0,48,0.00,,,0.00,77.000000,,2013-02-18 16:42:00,
2013-02-18 08:52:00,45.0,27.0,-100.00,NNE,27,0.0,14.0,48,0.00,,,0.00,77.000000,,2013-02-18 16:52:00,
2013-02-18 09:22:00,52.0,27.0,-100.00,NE,48,4.0,6.0,37,0.00,,,0.00,351.000000,,2013-02-18 17:22:00,
2013-02-18 10:22:00,56.0,22.0,-100.00,North,1,3.0,10.0,26,0.00,,,0.00,560.000000,,2013-02-18 18:22:00,
2013-02-18 10:32:00,56.0,22.0,-100.00,North,1,3.0,10.0,26,0.00,,,0.00,560.000000,,2013-02-18 18:32:00,
2013-02-18 10:42:00,56.0,22.0,-100.00,North,1,3.0,10.0,26,0.00,,,0.00,560.000000,,2013-02-18 18:42:00,
2013-02-18 10:52:00,56.0,22.0,-100.00,North,1,3.0,10.0,26,0.00,,,0.00,560.000000,,2013-02-18 18:52:00,
2013-02-18 11:22:00,57.0,23.0,-100.00,South,184,5.0,10.0,27,0.00,,,0.00,717.000000,,2013-02-18 19:22:00,
2013-02-18 11:33:00,57.0,23.0,-100.00,South,184,5.0,10.0,27,0.00,,,0.00,717.000000,,2013-02-18 19:33:00,
2013-02-18 11:42:00,57.0,23.0,-100.00,South,184,5.0,10.0,27,0.00,,,0.00,717.000000,,2013-02-18 19:42:00,
2013-02-18 11:52:00,57.0,23.0,-100.00,South,184,5.0,10.0,27,0.00,,,0.00,717.000000,,2013-02-18 19:52:00,
2013-02-18 12:22:00,60.0,23.0,-100.00,South,185,10.0,15.0,24,0.00,,,0.00,810.000000,,2013-02-18 20:22:00,
2013-02-18 12:32:00,60.0,23.0,-100.00,South,185,10.0,15.0,24,0.00,,,0.00,810.000000,,2013-02-18 20:32:00,
2013-02-18 12:42:00,60.0,23.0,-100.00,South,185,10.0,15.0,24,0.00,,,0.00,810.000000,,2013-02-18 20:42:00,
2013-02-18 12:52:00,60.0,23.0,-100.00,South,185,10.0,15.0,24,0.00,,,0.00,810.000000,,2013-02-18 20:52:00,
2013-02-18 13:21:00,64.0,24.0,-100.00,South,172,10.0,16.0,22,0.00,,,0.00,829.000000,,2013-02-18 21:21:00,
2013-02-18 13:32:00,64.0,24.0,-100.00,South,172,10.0,16.0,22,0.00,,,0.00,829.000000,,2013-02-18 21:32:00,
2013-02-18 13:42:00,64.0,24.0,-100.00,South,172,10.0,16.0,22,0.00,,,0.00,829.000000,,2013-02-18 21:42:00,
2013-02-18 13:52:00,64.0,24.0,-100.00,South,172,10.0,16.0,22,0.00,,,0.00,829.000000,,2013-02-18 21:52:00,
2013-02-18 14:22:00,64.0,20.0,-100.00,South,181,14.0,19.0,18,0.00,,,0.00,771.000000,,2013-02-18 22:22:00,
2013-02-18 14:33:00,64.0,20.0,-100.00,South,181,14.0,19.0,18,0.00,,,0.00,771.000000,,2013-02-18 22:33:00,
2013-02-18 14:42:00,64.0,20.0,-100.00,South,181,14.0,19.0,18,0.00,,,0.00,771.000000,,2013-02-18 22:42:00,
2013-02-18 14:52:00,64.0,20.0,-100.00,South,181,14.0,19.0,18,0.00,,,0.00,771.000000,,2013-02-18 22:52:00,
2013-02-18 15:22:00,66.0,29.0,-100.00,South,175,11.0,22.0,25,0.00,,,0.00,633.000000,,2013-02-18 23:22:00,
2013-02-18 15:42:00,66.0,29.0,-100.00,South,175,11.0,22.0,25,0.00,,,0.00,633.000000,,2013-02-18 23:42:00,
2013-02-18 15:52:00,66.0,29.0,-100.00,South,175,11.0,22.0,25,0.00,,,0.00,633.000000,,2013-02-18 23:52:00,
2013-02-18 16:22:00,64.0,33.0,-100.00,NW,307,16.0,31.0,31,0.00,,,0.00,451.000000,,2013-02-19 00:22:00,
2013-02-18 16:33:00,64.0,33.0,-100.00,NW,307,16.0,31.0,31,0.00,,,0.00,451.000000,,2013-02-19 00:33:00,
2013-02-18 16:42:00,64.0,33.0,-100.00,NW,307,16.0,31.0,31,0.00,,,0.00,451.000000,,2013-02-19 00:42:00,
2013-02-18 16:52:00,64.0,33.0,-100.00,NW,307,16.0,31.0,31,0.00,,,0.00,451.000000,,2013-02-19 00:52:00,
2013-02-18 17:23:00,60.0,28.0,-100.00,NW,315,11.0,23.0,30,0.00,,,0.00,233.000000,,2013-02-19 01:23:00,
2013-02-18 17:33:00,60.0,28.0,-100.00,NW,315,11.0,23.0,30,0.00,,,0.00,233.000000,,2013-02-19 01:33:00,
2013-02-18 17:42:00,60.0,28.0,-100.00,NW,315,11.0,23.0,30,0.00,,,0.00,233.000000,,2013-02-19 01:42:00,
2013-02-18 17:52:00,60.0,28.0,-100.00,NW,315,11.0,23.0,30,0.00,,,0.00,233.000000,,2013-02-19 01:52:00,
2013-02-18 18:22:00,56.0,28.0,-100.00,WNW,292,11.0,24.0,34,0.00,,,0.00,15.000000,,2013-02-19 02:22:00,
2013-02-18 18:33:00,56.0,28.0,-100.00,WNW,292,11.0,24.0,34,0.00,,,0.00,15.000000,,2013-02-19 02:33:00,
2013-02-18 18:42:00,56.0,28.0,-100.00,WNW,292,11.0,24.0,34,0.00,,,0.00,15.000000,,2013-02-19 02:42:00,
2013-02-18 18:52:00,56.0,28.0,-100.00,WNW,292,11.0,24.0,34,0.00,,,0.00,15.000000,,2013-02-19 02:52:00,
2013-02-18 19:22:00,55.0,28.0,-100.00,SSE,167,2.0,14.0,35,0.00,,,0.00,0.000000,,2013-02-19 03:22:00,
2013-02-18 19:33:00,55.0,28.0,-100.00,SSE,167,2.0,14.0,35,0.00,,,0.00,0.000000,,2013-02-19 03:33:00,
2013-02-18 19:43:00,55.0,28.0,-100.00,SSE,167,2.0,14.0,35,0.00,,,0.00,0.000000,,2013-02-19 03:43:00,
2013-02-18 19:52:00,55.0,28.0,-100.00,SSE,167,2.0,14.0,35,0.00,,,0.00,0.000000,,2013-02-19 03:52:00,
2013-02-18 20:22:00,52.0,30.0,-100.00,SSE,157,3.0,9.0,43,0.00,,,0.00,0.000000,,2013-02-19 04:22:00,
2013-02-18 20:32:00,52.0,30.0,-100.00,SSE,157,3.0,9.0,43,0.00,,,0.00,0.000000,,2013-02-19 04:32:00,
2013-02-18 20:42:00,52.0,30.0,-100.00,SSE,157,3.0,9.0,43,0.00,,,0.00,0.000000,,2013-02-19 04:42:00,
2013-02-18 20:51:00,52.0,30.0,-100.00,SSE,157,3.0,9.0,43,0.00,,,0.00,0.000000,,2013-02-19 04:51:00,
2013-02-18 21:22:00,49.0,29.0,-100.00,North,7,2.0,8.0,46,0.00,,,0.00,0.000000,,2013-02-19 05:22:00,
2013-02-18 21:32:00,49.0,29.0,-100.00,North,7,2.0,8.0,46,0.00,,,0.00,0.000000,,2013-02-19 05:32:00,
2013-02-18 21:43:00,49.0,29.0,-100.00,North,7,2.0,8.0,46,0.00,,,0.00,0.000000,,2013-02-19 05:43:00,
2013-02-18 21:52:00,49.0,29.0,-100.00,North,7,2.0,8.0,46,0.00,,,0.00,0.000000,,2013-02-19 05:52:00,
2013-02-18 22:21:00,47.0,30.0,-100.00,NNW,337,3.0,7.0,51,0.00,,,0.00,0.000000,,2013-02-19 06:21:00,
2013-02-18 22:32:00,47.0,30.0,-100.00,NNW,337,3.0,7.0,51,0.00,,,0.00,0.000000,,2013-02-19 06:32:00,
2013-02-18 22:42:00,47.0,30.0,-100.00,NNW,337,3.0,7.0,51,0.00,,,0.00,0.000000,,2013-02-19 06:42:00,
2013-02-18 22:52:00,47.0,30.0,-100.00,NNW,337,3.0,7.0,51,0.00,,,0.00,0.000000,,2013-02-19 06:52:00,
2013-02-18 23:21:00,44.0,28.0,-100.00,NNE,19,8.0,11.0,52,0.00,,,0.00,0.000000,,2013-02-19 07:21:00,
2013-02-18 23:32:00,44.0,28.0,-100.00,NNE,19,8.0,11.0,52,0.00,,,0.00,0.000000,,2013-02-19 07:32:00,
2013-02-18 23:42:00,44.0,28.0,-100.00,NNE,19,8.0,11.0,52,0.00,,,0.00,0.000000,,2013-02-19 07:42:00,
2013-02-18 23:51:00,44.0,28.0,-100.00,NNE,19,8.0,11.0,52,0.00,,,0.00,0.000000,,2013-02-19 07:51:00,